Weather reports worldwide

Advertisment
Brocken, Germany (10453): temperature & dewpoint: 18.06.2018 11:00:00 - 24.06.2018 11:00:00 (CEST)Brocken, Germany (10453): temperature 5cm: 18.06.2018 11:00:00 - 24.06.2018 11:00:00 (CEST)Brocken, Germany (10453): wind speed & gusts: 18.06.2018 11:00:00 - 24.06.2018 11:00:00 (CEST)Brocken, Germany (10453): wind direction: 18.06.2018 11:00:00 - 24.06.2018 11:00:00 (CEST)Brocken, Germany (10453): visibility: 18.06.2018 11:00:00 - 24.06.2018 11:00:00 (CEST)Brocken, Germany (10453): sunshine duration: 18.06.2018 11:00:00 - 24.06.2018 11:00:00 (CEST)
Date & Time tt [°C] td [°C] tt 5cm [°C] ff [km/h] ff [kn] fx [km/h] fx [kn] dd vv [km] sd [min]
24.06.2018 11:00:00 4,5 4,4 5,2 29 16 36 19 WNW - 0
24.06.2018 10:00:00 4,2 4,1 4,8 27 15 40 22 WNW - 0
24.06.2018 09:00:00 3,7 3,6 4,4 32 17 52 28 NW - 0
24.06.2018 08:00:00 3,3 3,2 3,8 42 23 56 30 NW - 0
24.06.2018 07:00:00 3,2 3,1 3,6 41 22 54 29 WNW - 0
24.06.2018 06:00:00 2,9 2,8 3,1 44 24 53 29 WNW - 0
24.06.2018 05:00:00 2,9 2,8 2,9 44 24 54 29 WNW - 0
24.06.2018 04:00:00 3,2 3,1 3,2 47 25 55 30 WNW - 0
24.06.2018 03:00:00 3,6 3,5 3,7 42 23 58 32 NW - 0
24.06.2018 02:00:00 4,1 4,0 4,2 41 22 59 32 NW - 0
24.06.2018 01:00:00 4,5 4,4 4,6 42 23 64 34 NW - 0
24.06.2018 00:00:00 4,6 4,5 4,6 43 23 62 34 NW - 0
23.06.2018 23:00:00 4,8 4,7 4,9 36 19 51 28 NW - 0
23.06.2018 22:00:00 4,7 4,6 4,8 39 21 50 27 WNW - 0
23.06.2018 21:00:00 4,7 4,6 4,8 40 22 58 31 WNW - 0
23.06.2018 20:00:00 5,0 4,9 5,1 38 20 55 30 WNW - 0
23.06.2018 19:00:00 4,9 4,8 5,1 38 20 63 34 WNW - 0
23.06.2018 18:00:00 4,8 4,7 5,1 41 22 60 32 WNW - 0
23.06.2018 17:00:00 4,8 4,7 5,3 40 22 56 30 WNW - 0
23.06.2018 16:00:00 4,7 4,6 5,2 38 21 55 30 WNW - 0
23.06.2018 15:00:00 4,7 4,5 5,3 43 23 69 37 WNW - 0
23.06.2018 14:00:00 4,5 4,4 5,1 51 28 69 38 WNW - 4
23.06.2018 13:00:00 4,7 4,6 5,2 42 23 69 37 WNW - 2
23.06.2018 12:00:00 4,2 4,1 5,1 46 25 68 37 WNW - 0
23.06.2018 11:00:00 4,7 4,7 5,6 39 21 51 28 W - 0
23.06.2018 10:00:00 4,0 4,0 4,4 40 22 52 28 W - 0
23.06.2018 09:00:00 3,6 3,6 3,8 38 21 56 30 WNW - 0
23.06.2018 08:00:00 3,1 3,1 3,3 46 25 65 35 W - 0
23.06.2018 07:00:00 2,3 2,2 2,5 51 28 65 35 WNW - 0
23.06.2018 06:00:00 2,2 2,1 2,4 49 27 68 37 WNW - 0
23.06.2018 05:00:00 2,1 2,0 2,3 55 30 78 42 WNW - 0
23.06.2018 04:00:00 2,6 2,5 2,7 53 28 71 38 WNW - 0
23.06.2018 03:00:00 2,8 2,6 2,9 50 27 68 37 WNW 0,1 0
23.06.2018 02:00:00 3,1 2,9 3,2 51 28 74 40 WNW 0,1 0
23.06.2018 01:00:00 3,5 3,3 3,6 57 31 70 38 WNW 0,1 0
23.06.2018 00:00:00 3,7 3,5 3,8 43 23 64 35 WNW 0,1 0
22.06.2018 23:00:00 4,1 3,8 4,1 41 22 68 37 WNW 0,2 0
22.06.2018 22:00:00 4,6 3,7 4,4 48 26 69 37 WNW 60 0
22.06.2018 21:00:00 5,3 4,4 5,2 41 22 59 32 WNW 60 0
22.06.2018 20:00:00 5,5 3,8 5,3 43 23 65 35 NW 60 2
22.06.2018 19:00:00 5,5 4,8 5,7 36 20 61 33 NNW 50 12
22.06.2018 18:00:00 5,5 5,2 5,9 42 23 59 32 NW - 1
22.06.2018 17:00:00 5,3 4,9 6,5 36 20 58 31 WNW 15 4
22.06.2018 16:00:00 5,4 5,2 7,1 44 24 63 34 WNW 8 5
22.06.2018 15:00:00 4,7 4,7 6,6 35 19 78 42 WNW - 6
22.06.2018 14:00:00 4,8 4,6 6,2 36 19 57 31 NW - 7
22.06.2018 13:00:00 3,6 3,5 3,8 37 20 64 34 NW - 0
22.06.2018 12:00:00 2,9 2,9 3,0 42 23 66 36 NW - 0
22.06.2018 11:00:00 2,0 1,9 3,0 47 25 68 37 WNW - 0
22.06.2018 10:00:00 2,0 2,0 2,7 40 21 66 35 WNW - 0
22.06.2018 09:00:00 1,8 1,7 2,4 46 25 66 36 W - 0
22.06.2018 08:00:00 2,3 2,3 2,7 50 27 74 40 W - 0
22.06.2018 07:00:00 2,2 2,2 2,5 59 32 78 42 W - 0
22.06.2018 06:00:00 2,2 2,1 2,4 56 31 80 43 W - 0
22.06.2018 05:00:00 2,1 2,1 2,4 50 27 77 41 W - 0
22.06.2018 04:00:00 2,0 1,9 2,2 55 30 84 46 W - 0
22.06.2018 03:00:00 2,2 2,1 2,4 61 33 86 46 W - 0
22.06.2018 02:00:00 1,9 1,7 2,1 62 34 85 46 W - 0
22.06.2018 01:00:00 2,3 2,1 2,6 51 28 72 39 W - 0
22.06.2018 00:00:00 3,1 2,9 3,3 49 27 66 36 W - 0
21.06.2018 23:00:00 3,4 2,8 3,4 39 21 61 33 WNW 80 0
21.06.2018 22:00:00 3,8 2,7 3,9 44 24 67 36 WNW 82 0
21.06.2018 21:00:00 4,5 2,9 4,7 41 22 74 40 WNW 82 3
21.06.2018 20:00:00 5,5 2,3 5,5 50 27 79 43 WNW 82 5
21.06.2018 19:00:00 6,1 1,1 5,4 55 30 83 45 WNW 82 28
21.06.2018 18:00:00 6,4 0,9 5,9 55 30 77 42 WNW 82 16
21.06.2018 17:00:00 7,2 3,4 9,5 49 27 73 40 WNW 82 34
21.06.2018 16:00:00 6,7 6,5 7,3 44 24 82 45 W 70 0
21.06.2018 15:00:00 6,3 6,2 7,8 51 27 104 56 W - 5
21.06.2018 14:00:00 7,7 7,5 8,9 72 39 98 53 W - 1
21.06.2018 13:00:00 7,1 7,0 7,6 65 35 90 49 W - 0
21.06.2018 12:00:00 8,5 8,4 8,9 41 22 74 40 WNW - 0
21.06.2018 11:00:00 11,9 10,1 12,5 57 31 81 44 WSW 50 23
21.06.2018 10:00:00 12,5 9,4 13,5 51 28 73 39 SW 30 37
21.06.2018 09:00:00 12,1 11,3 13,7 56 30 69 37 SW 30 25
21.06.2018 08:00:00 13,0 10,9 14,4 40 22 51 27 WSW 35 41
21.06.2018 07:00:00 12,8 10,5 13,4 41 22 49 27 WSW 55 60
21.06.2018 06:00:00 12,8 10,0 11,3 40 21 44 24 WSW 60 19
21.06.2018 05:00:00 13,1 10,0 10,7 35 19 40 21 WSW 60 0
21.06.2018 04:00:00 13,3 9,5 11,0 31 17 46 25 W 80 0
21.06.2018 03:00:00 13,9 10,3 11,7 38 21 43 23 W 80 0
21.06.2018 02:00:00 14,0 10,6 11,8 30 16 35 19 W 80 0
21.06.2018 01:00:00 14,3 10,6 11,9 28 15 31 17 W 80 0
21.06.2018 00:00:00 14,6 10,4 11,7 27 15 33 18 W 80 0
20.06.2018 23:00:00 15,1 10,2 12,4 29 16 33 18 W 70 0
20.06.2018 22:00:00 15,3 10,5 12,4 27 14 30 16 W 70 13
20.06.2018 21:00:00 16,2 10,1 13,7 24 13 41 22 W 80 60
20.06.2018 20:00:00 16,9 9,1 15,6 30 16 45 24 WSW 70 60
20.06.2018 19:00:00 17,3 8,1 18,9 31 17 41 22 WSW 70 60
20.06.2018 18:00:00 17,2 11,1 20,8 27 15 39 21 WSW 70 57
20.06.2018 17:00:00 17,0 11,4 22,1 27 14 43 23 SW 60 54
20.06.2018 16:00:00 17,7 12,0 22,4 27 15 41 22 SSW 60 42
20.06.2018 15:00:00 15,7 11,6 18,7 27 15 40 21 SSW 65 24
20.06.2018 14:00:00 14,7 11,9 17,1 26 14 39 21 SSW 40 5
20.06.2018 13:00:00 13,5 11,3 15,5 29 16 40 22 SW 30 0
20.06.2018 12:00:00 12,8 11,3 16,3 31 17 38 20 SSW 25 2
20.06.2018 11:00:00 12,2 11,3 13,5 22 12 35 19 S 5 0
20.06.2018 10:00:00 11,5 11,1 12,8 24 13 32 17 SSW 8 0
20.06.2018 09:00:00 11,4 11,2 12,7 19 11 26 14 SSW - 0
20.06.2018 08:00:00 11,4 11,4 12,0 16 9 22 12 SSW - 0
20.06.2018 07:00:00 11,8 11,5 12,4 9 5 16 9 WSW - 14
20.06.2018 06:00:00 11,4 11,2 11,2 11 6 20 11 W 0,1 0
20.06.2018 05:00:00 11,4 11,3 11,2 17 9 23 12 WNW - 0
20.06.2018 04:00:00 11,3 11,1 11,0 20 11 26 14 WNW - 0
20.06.2018 03:00:00 11,4 11,2 11,4 21 11 30 16 W - 0
20.06.2018 02:00:00 11,4 11,2 11,3 24 13 33 18 W - 0
20.06.2018 01:00:00 11,7 11,5 11,7 28 15 34 18 W - 0
20.06.2018 00:00:00 11,6 11,4 11,5 27 15 36 19 W - 0
19.06.2018 23:00:00 11,5 11,3 11,2 24 13 36 19 W 0,2 0
19.06.2018 22:00:00 11,5 10,2 10,0 23 13 32 18 W 20 0
19.06.2018 21:00:00 12,2 11,2 11,7 18 10 26 14 W 25 0
19.06.2018 20:00:00 12,4 11,4 12,8 22 12 30 16 W 50 0
19.06.2018 19:00:00 12,5 11,3 12,9 23 12 32 17 W 40 0
19.06.2018 18:00:00 12,7 11,4 13,5 25 13 38 20 W 40 0
19.06.2018 17:00:00 12,3 11,5 13,7 25 14 41 22 W 30 0
19.06.2018 16:00:00 12,4 11,3 14,0 28 15 40 21 W 30 0
19.06.2018 15:00:00 12,9 10,9 13,7 27 15 40 22 W 40 1
19.06.2018 14:00:00 13,3 10,7 15,2 30 16 44 24 W 50 13
19.06.2018 13:00:00 13,8 10,8 17,9 36 19 52 28 W 50 29
19.06.2018 12:00:00 12,7 10,7 14,4 34 19 54 29 WSW 50 1
19.06.2018 11:00:00 11,3 10,1 12,7 39 21 52 28 WSW 30 11
19.06.2018 10:00:00 10,7 9,7 12,9 27 15 37 20 SW 40 0
19.06.2018 09:00:00 10,6 8,3 11,2 19 10 34 18 WSW 60 24
19.06.2018 08:00:00 9,8 8,5 11,0 27 15 49 27 WSW 30 48
19.06.2018 07:00:00 8,9 8,7 9,5 43 23 68 37 W - 3
19.06.2018 06:00:00 9,3 9,2 9,4 53 29 69 37 W - 0
19.06.2018 05:00:00 10,1 10,0 10,1 45 24 66 35 W - 0
19.06.2018 04:00:00 10,5 10,5 10,6 39 21 58 31 WSW - 0
19.06.2018 03:00:00 10,7 10,5 10,7 39 21 59 32 WSW - 0
19.06.2018 02:00:00 10,7 10,6 10,7 43 23 54 29 WSW - 0
19.06.2018 01:00:00 10,7 10,5 10,7 40 21 53 29 SW 40 0
19.06.2018 00:00:00 10,8 10,4 10,4 39 21 51 27 SW 40 0
18.06.2018 23:00:00 10,7 10,5 10,7 42 23 50 27 WSW - 0
18.06.2018 22:00:00 10,8 10,5 10,8 33 18 46 25 WSW 50 0
18.06.2018 21:00:00 11,8 9,7 11,8 35 19 42 23 WSW 82 0
18.06.2018 20:00:00 12,4 9,2 12,0 32 17 46 25 SW 82 28
18.06.2018 19:00:00 13,2 9,4 15,9 35 19 50 27 SW 82 50
18.06.2018 18:00:00 12,8 9,0 16,7 36 19 50 27 SW 60 46
18.06.2018 17:00:00 11,8 8,9 15,2 40 22 53 28 SW 60 24
18.06.2018 16:00:00 11,3 8,7 13,9 41 22 50 27 SW 60 4
18.06.2018 15:00:00 11,0 9,1 13,4 34 18 49 26 WSW 60 15
18.06.2018 14:00:00 9,6 8,8 13,8 36 19 47 26 SW 50 4
18.06.2018 13:00:00 9,5 8,6 13,1 36 20 51 28 SW 50 6
18.06.2018 12:00:00 9,5 8,1 13,2 33 18 44 24 SW 50 5
18.06.2018 11:00:00 9,2 6,5 12,2 32 17 48 26 SW 50 32

tt = temperature
td = dewpoint
tt 5cm = temperature 5cm
ff = wind speed
fx = gusts
dd = wind direction
vv = visibility
sd = sunshine duration

Next stations